Sevier River near Sigurd




Date Battery Voltage (V) Panel Temperature (degC) River Stage (ft) River Discharge (cfs)
09/01/2017 13.34 22.69 0.16 1
09/02/2017 13.31 23.68 0.17 1
09/03/2017 13.28 24.43 0.17 1
09/04/2017 13.29 24.44 0.17 1
09/05/2017 13.30 22.71 0.18 1
09/06/2017 13.32 21.99 0.17 1
09/07/2017 13.25 22.99 0.21 1
09/08/2017 13.36 19.35 0.67 10
09/09/2017 13.15 15.95 0.89 23
09/10/2017 13.31 21.50 1.54 69
09/11/2017 13.29 22.54 1.72 90
09/12/2017 13.22 19.28 1.75 94
09/13/2017 13.31 19.94 1.66 83
09/14/2017 12.95 14.02 1.59 75
09/15/2017 13.01 13.44 1.68 86
09/16/2017 13.37 13.87 1.79 99
09/17/2017 13.36 15.88 1.82 102
09/18/2017 13.36 18.68 1.83 104
09/19/2017 13.39 19.58 2.13 161
09/20/2017 13.36 17.88 1.63 80
09/21/2017 13.30 19.73 1.54 70
09/22/2017 13.32 10.48 1.52 67
09/23/2017 13.05 7.10 1.58 73
09/24/2017 13.12 7.62 1.55 71
09/25/2017 13.40 9.46 1.59 75
09/26/2017 13.46 10.40 1.56 71
09/27/2017 13.41 13.32 1.62 78
09/28/2017 13.34 15.98 1.65 81
09/29/2017 13.35 15.92 1.59 75
09/30/2017 13.24 15.29 1.55 70
Average 60
Maximum 161
Minimum 1
Total Volume (AF) 3,597